Time;durP1;ratioP1;P1;durP2;ratioP2;P2;SDS_P1;SDS_P2;PMS_P1;PMS_P2;Temp;Humidity;BMP_temperature;BMP_pressure;BME280_temperature;BME280_humidity;BME280_pressure;Samples;Min_cycle;Max_cycle;Signal;HPM_P1;HPM_P2
2023/02/27 00:00:48;;;;;;;3.17;2.87;;;;;;;4.08;44.24;99209.34;6974655;28;20265;-80
2023/02/27 00:04:11;;;;;;;2.53;2.33;;;;;;;4.04;44.21;99212.47;6975260;28;20271;-80
2023/02/27 00:07:32;;;;;;;3.10;2.40;;;;;;;4.25;43.05;99180.97;6974300;28;20372;-80
2023/02/27 00:10:54;;;;;;;2.90;2.70;;;;;;;4.08;44.05;99177.31;6975236;28;20192;-80
2023/02/27 00:14:15;;;;;;;2.77;2.57;;;;;;;4.15;43.74;99213.09;6975360;28;20260;-80
2023/02/27 00:17:37;;;;;;;2.63;2.30;;;;;;;3.58;44.13;99208.22;6974224;28;20255;-80
2023/02/27 00:21:00;;;;;;;2.90;2.70;;;;;;;4.27;43.63;99206.50;6974303;28;20230;-80
2023/02/27 00:24:22;;;;;;;3.03;2.47;;;;;;;3.41;45.24;99194.88;6974127;28;20717;-80
2023/02/27 00:27:44;;;;;;;2.67;2.40;;;;;;;3.08;45.50;99150.25;6973866;28;20606;-80
2023/02/27 00:31:05;;;;;;;2.40;2.30;;;;;;;3.83;45.11;99206.63;6974425;28;20244;-80
2023/02/27 00:34:27;;;;;;;3.07;2.77;;;;;;;4.07;44.09;99197.00;6974923;28;20751;-80
2023/02/27 00:37:50;;;;;;;4.57;2.90;;;;;;;4.12;43.97;99212.56;6973680;28;20230;-80
2023/02/27 00:41:11;;;;;;;2.60;2.47;;;;;;;3.90;44.63;99205.84;6974307;28;20292;-81
2023/02/27 00:44:33;;;;;;;2.83;2.67;;;;;;;4.00;44.40;99197.75;6975645;28;20771;-80
2023/02/27 00:47:54;;;;;;;2.90;2.47;;;;;;;4.16;44.28;99212.09;6974819;28;20227;-80
2023/02/27 00:51:18;;;;;;;2.80;2.60;;;;;;;3.85;44.40;99200.16;6975567;28;20726;-80
2023/02/27 00:54:41;;;;;;;3.00;2.70;;;;;;;4.12;44.45;99210.72;6971941;28;20210;-80
2023/02/27 00:58:03;;;;;;;2.80;2.70;;;;;;;3.86;44.72;99199.16;6971898;28;20317;-80
2023/02/27 01:01:24;;;;;;;2.57;2.40;;;;;;;3.93;45.05;99205.56;6972310;28;20232;-81
2023/02/27 01:04:46;;;;;;;2.97;2.70;;;;;;;4.01;44.75;99202.94;6971560;28;20211;-80
2023/02/27 01:08:08;;;;;;;3.93;2.40;;;;;;;3.69;45.36;99208.00;6971124;28;20228;-80
2023/02/27 01:11:30;;;;;;;2.67;2.57;;;;;;;3.95;44.65;99200.91;6971555;28;20194;-80
2023/02/27 01:14:52;;;;;;;2.97;2.80;;;;;;;3.42;45.54;99196.56;6971554;28;20264;-80
2023/02/27 01:18:13;;;;;;;3.07;2.80;;;;;;;3.52;45.56;99170.66;6970746;28;20275;-80
2023/02/27 01:21:35;;;;;;;2.87;2.67;;;;;;;3.59;45.67;99206.41;6971632;28;20305;-80
2023/02/27 01:24:56;;;;;;;3.63;2.70;;;;;;;3.65;45.87;99206.63;6971257;28;20605;-80
2023/02/27 01:28:20;;;;;;;3.30;3.03;;;;;;;3.49;45.84;99198.47;6970815;28;20288;-79
2023/02/27 01:31:41;;;;;;;2.80;2.60;;;;;;;3.65;45.85;99203.13;6971140;28;20201;-80
2023/02/27 01:35:03;;;;;;;2.87;2.67;;;;;;;3.87;45.81;99202.66;6974915;28;20721;-80
2023/02/27 01:38:24;;;;;;;4.67;2.90;;;;;;;4.05;44.96;99192.81;6978190;28;20321;-80
2023/02/27 01:41:46;;;;;;;2.63;2.53;;;;;;;3.81;45.14;99173.94;6972305;28;20649;-80
2023/02/27 01:45:22;;;;;;;2.67;2.53;;;;;;;3.74;45.92;99189.72;6971984;28;20309;-80
2023/02/27 01:48:44;;;;;;;3.27;2.90;;;;;;;3.69;46.39;99193.81;6971216;28;20774;-80
2023/02/27 01:52:07;;;;;;;4.60;2.90;;;;;;;3.66;46.40;99178.16;6972107;28;20208;-80
2023/02/27 01:55:31;;;;;;;3.00;2.80;;;;;;;3.04;48.33;99196.78;6970821;28;20211;-80
2023/02/27 01:58:59;;;;;;;4.63;3.23;;;;;;;3.22;46.75;99177.19;6994376;28;20309;-80
2023/02/27 02:02:23;;;;;;;3.20;2.53;;;;;;;3.05;47.83;99185.16;6997973;28;20220;-80
2023/02/27 02:05:46;;;;;;;3.00;2.80;;;;;;;3.35;47.03;99176.81;6997568;28;20278;-80
2023/02/27 02:09:09;;;;;;;3.17;2.90;;;;;;;3.05;48.23;99187.81;6998096;28;20245;-80
2023/02/27 02:12:35;;;;;;;3.10;2.90;;;;;;;3.19;48.04;99174.00;6997777;28;20754;-80
2023/02/27 02:16:06;;;;;;;6.80;2.73;;;;;;;3.08;48.36;99183.00;6996878;28;20681;-80
2023/02/27 02:19:56;;;;;;;3.30;3.10;;;;;;;3.25;48.25;99184.88;6997537;28;20302;-80
2023/02/27 02:23:47;;;;;;;3.83;2.83;;;;;;;3.15;47.83;99185.94;6997640;28;20709;-80
2023/02/27 02:27:29;;;;;;;3.23;2.73;;;;;;;3.53;47.31;99169.66;6980208;28;20622;-80
2023/02/27 02:31:03;;;;;;;3.37;3.07;;;;;;;3.19;48.59;99180.16;6993731;28;20295;-80
2023/02/27 02:34:45;;;;;;;3.80;3.40;;;;;;;3.18;48.65;99181.16;6996538;28;20210;-80
2023/02/27 02:38:32;;;;;;;3.17;2.87;;;;;;;3.51;47.95;99183.19;6996953;28;20375;-80
2023/02/27 02:42:00;;;;;;;2.90;2.70;;;;;;;3.56;47.02;99164.03;6997369;28;20587;-80
2023/02/27 02:45:27;;;;;;;3.00;2.80;;;;;;;3.41;46.99;99157.56;6997622;28;20280;-80
2023/02/27 02:48:52;;;;;;;4.57;3.30;;;;;;;3.39;48.06;99179.06;6997064;28;20270;-80
2023/02/27 02:52:19;;;;;;;3.57;3.27;;;;;;;3.43;47.73;99187.59;6996774;28;20241;-80
2023/02/27 02:55:46;;;;;;;3.50;3.20;;;;;;;3.34;47.85;99192.00;6996814;28;20624;-80
2023/02/27 02:59:11;;;;;;;3.50;3.30;;;;;;;2.94;49.37;99193.31;6997509;28;20230;-80
2023/02/27 03:02:36;;;;;;;4.97;3.00;;;;;;;3.02;47.74;99125.03;6997240;28;20231;-80
2023/02/27 03:06:01;;;;;;;3.43;3.13;;;;;;;3.77;47.51;99196.59;6996946;28;20232;-80
2023/02/27 03:09:25;;;;;;;3.93;3.20;;;;;;;3.48;46.80;99153.31;6997375;28;20717;-80
2023/02/27 03:12:52;;;;;;;3.67;3.37;;;;;;;3.79;46.99;99199.94;6997289;28;20207;-80
2023/02/27 03:16:16;;;;;;;3.50;3.20;;;;;;;3.95;46.60;99198.22;6997846;28;20571;-80
2023/02/27 03:19:41;;;;;;;3.30;3.10;;;;;;;3.78;46.97;99198.25;6998132;28;20230;-80
2023/02/27 03:23:06;;;;;;;3.40;3.10;;;;;;;3.65;47.04;99200.47;6998050;28;20362;-80
2023/02/27 03:26:31;;;;;;;3.40;3.13;;;;;;;3.64;47.44;99204.09;7000303;28;20268;-80
2023/02/27 03:29:57;;;;;;;4.43;3.20;;;;;;;3.57;47.77;99208.38;7003310;28;20227;-80
2023/02/27 03:33:22;;;;;;;4.03;3.47;;;;;;;3.62;47.18;99211.44;7002994;28;20690;-80
2023/02/27 03:36:47;;;;;;;3.40;3.10;;;;;;;3.46;48.22;99203.25;7003340;28;20694;-80
2023/02/27 03:40:18;;;;;;;6.87;3.27;;;;;;;3.77;47.50;99207.25;7003373;28;20292;-80
2023/02/27 03:43:46;;;;;;;3.70;3.40;;;;;;;3.42;47.34;99212.56;7001766;28;20201;-79
2023/02/27 03:47:09;;;;;;;3.53;3.03;;;;;;;3.87;47.27;99216.84;6981812;28;20280;-79
2023/02/27 03:50:30;;;;;;;6.40;3.43;;;;;;;3.89;46.90;99216.69;6972418;28;20228;-79
2023/02/27 03:53:56;;;;;;;3.63;3.33;;;;;;;3.79;47.50;99224.75;6974303;28;20697;-80
2023/02/27 03:57:18;;;;;;;3.40;3.10;;;;;;;4.09;46.01;99226.19;6975331;28;20264;-79
2023/02/27 04:00:39;;;;;;;6.63;3.97;;;;;;;3.82;46.47;99221.78;6975977;28;20233;-80
2023/02/27 04:04:04;;;;;;;3.40;3.10;;;;;;;4.08;46.53;99219.19;6975109;28;20351;-80
2023/02/27 04:07:31;;;;;;;3.90;3.50;;;;;;;3.49;46.51;99155.81;6974839;28;20248;-80
2023/02/27 04:11:19;;;;;;;3.40;3.10;;;;;;;3.93;46.60;99224.22;6975780;28;20278;-80
2023/02/27 04:14:49;;;;;;;3.53;3.07;;;;;;;3.72;47.38;99225.53;6975303;28;20243;-80
2023/02/27 04:18:19;;;;;;;4.23;3.33;;;;;;;3.78;47.40;99241.75;6975104;28;20232;-80
2023/02/27 04:21:46;;;;;;;4.60;3.67;;;;;;;3.80;47.18;99233.59;6974827;28;20215;-80
2023/02/27 04:25:23;;;;;;;3.97;3.67;;;;;;;3.84;47.30;99234.97;6974824;28;20670;-80
2023/02/27 04:28:48;;;;;;;8.37;3.83;;;;;;;3.65;47.94;99235.94;6974955;28;20271;-80
2023/02/27 04:32:14;;;;;;;3.97;3.50;;;;;;;3.50;48.27;99237.47;6975128;28;20261;-80
2023/02/27 04:35:40;;;;;;;3.90;3.57;;;;;;;3.79;47.22;99230.09;6974930;28;20192;-80
2023/02/27 04:39:07;;;;;;;4.10;3.80;;;;;;;3.91;47.17;99220.88;6974323;28;20257;-80
2023/02/27 04:42:31;;;;;;;3.50;3.20;;;;;;;3.76;47.11;99232.22;6975209;28;20667;-80
2023/02/27 04:45:53;;;;;;;3.67;3.37;;;;;;;3.94;46.79;99235.72;6974778;28;20293;-80
2023/02/27 04:49:18;;;;;;;4.03;3.63;;;;;;;3.92;46.77;99238.56;6976247;28;20363;-80
2023/02/27 04:52:41;;;;;;;3.67;3.37;;;;;;;3.88;46.59;99233.66;6977976;28;20283;-80
2023/02/27 04:56:08;;;;;;;3.93;3.63;;;;;;;4.00;46.69;99237.78;6973218;28;20210;-80
2023/02/27 04:59:31;;;;;;;3.50;3.30;;;;;;;4.08;46.29;99229.84;6973544;28;20319;-80
2023/02/27 05:02:55;;;;;;;5.23;3.43;;;;;;;3.86;46.18;99195.66;6971447;28;20707;-80
2023/02/27 05:06:19;;;;;;;5.17;3.67;;;;;;;4.05;46.17;99240.81;6970138;28;20212;-80
2023/02/27 05:09:42;;;;;;;4.00;3.03;;;;;;;4.13;46.05;99244.41;6970781;28;20364;-80
2023/02/27 05:13:10;;;;;;;4.37;3.60;;;;;;;3.89;47.00;99246.03;6970867;28;20204;-80
2023/02/27 05:16:35;;;;;;;3.93;3.63;;;;;;;3.74;47.59;99236.88;6971096;28;20615;-81
2023/02/27 05:19:58;;;;;;;4.60;3.73;;;;;;;3.71;47.12;99251.34;6970946;28;20236;-80
2023/02/27 05:23:22;;;;;;;4.50;3.90;;;;;;;3.83;46.63;99251.97;6970695;28;20232;-80
2023/02/27 05:27:08;;;;;;;4.40;3.60;;;;;;;3.47;47.28;99252.91;6970649;28;20214;-80
2023/02/27 05:30:34;;;;;;;6.00;3.70;;;;;;;3.60;46.93;99258.72;6968218;28;20366;-80
2023/02/27 05:33:59;;;;;;;4.03;3.73;;;;;;;3.46;47.49;99273.41;6969957;28;20188;-80
2023/02/27 05:37:23;;;;;;;3.90;3.50;;;;;;;3.48;47.13;99268.75;6969884;28;20239;-80
2023/02/27 05:40:48;;;;;;;4.60;4.10;;;;;;;3.57;47.10;99281.19;6969476;28;20830;-80
2023/02/27 05:44:12;;;;;;;6.13;4.40;;;;;;;3.62;47.32;99270.06;6968823;28;20668;-81
2023/02/27 05:47:37;;;;;;;6.13;4.17;;;;;;;3.80;46.64;99285.13;6972449;28;20264;-81
2023/02/27 05:50:59;;;;;;;5.77;4.20;;;;;;;3.76;46.30;99291.72;6969075;28;20191;-81
2023/02/27 05:54:24;;;;;;;4.07;3.67;;;;;;;3.45;47.31;99279.72;6981374;28;20248;-81
2023/02/27 05:57:50;;;;;;;5.63;4.13;;;;;;;3.52;47.46;99290.63;6972892;28;20283;-80
2023/02/27 06:01:12;;;;;;;4.97;3.83;;;;;;;3.64;47.38;99279.59;6985036;28;20277;-80
2023/02/27 06:04:35;;;;;;;4.27;3.80;;;;;;;3.72;47.23;99276.19;6983759;28;20295;-80
2023/02/27 06:07:57;;;;;;;4.20;3.80;;;;;;;3.05;48.16;99289.88;6996457;28;20277;-80
2023/02/27 06:11:18;;;;;;;4.17;3.77;;;;;;;3.27;48.28;99299.31;6988915;28;20280;-82
2023/02/27 06:14:40;;;;;;;5.57;3.73;;;;;;;2.89;49.81;99302.97;6989845;28;20364;-81
2023/02/27 06:18:01;;;;;;;4.20;3.90;;;;;;;3.18;47.87;99229.09;6999581;28;20367;-80
2023/02/27 06:21:24;;;;;;;8.33;4.60;;;;;;;3.64;47.12;99289.41;6999028;28;20292;-80
2023/02/27 06:24:46;;;;;;;5.07;4.60;;;;;;;2.96;47.87;99250.78;6998092;28;20214;-79
2023/02/27 06:28:08;;;;;;;4.23;3.83;;;;;;;2.22;50.75;99312.03;6998302;28;20694;-80
2023/02/27 06:31:29;;;;;;;4.40;4.00;;;;;;;2.92;49.68;99308.00;6997223;28;20203;-80
2023/02/27 06:34:51;;;;;;;4.73;4.07;;;;;;;3.51;48.38;99304.94;6996205;28;20209;-79
2023/02/27 06:38:14;;;;;;;4.57;4.17;;;;;;;3.42;48.21;99306.66;6996856;28;20440;-80
2023/02/27 06:41:35;;;;;;;8.30;4.40;;;;;;;3.70;47.52;99294.16;6996892;28;20226;-81
2023/02/27 06:44:57;;;;;;;5.27;3.80;;;;;;;2.56;49.98;99315.94;6996660;28;20252;-80
2023/02/27 06:48:18;;;;;;;5.67;4.13;;;;;;;3.65;47.85;99312.44;6996333;28;20644;-81
2023/02/27 06:51:40;;;;;;;4.93;4.40;;;;;;;3.78;46.96;99313.75;6996925;28;20202;-81
2023/02/27 06:55:03;;;;;;;5.20;4.30;;;;;;;3.30;47.96;99318.50;6997600;28;20664;-81
2023/02/27 06:58:24;;;;;;;4.87;3.83;;;;;;;3.81;47.15;99310.78;6997704;28;20232;-80
2023/02/27 07:01:47;;;;;;;5.00;4.07;;;;;;;3.37;47.06;99327.59;6999900;28;20673;-81
2023/02/27 07:05:10;;;;;;;5.13;4.13;;;;;;;3.81;46.91;99321.47;7001949;28;20217;-81
2023/02/27 07:08:32;;;;;;;4.53;4.13;;;;;;;2.93;48.15;99325.66;7001823;28;20233;-81
2023/02/27 07:11:55;;;;;;;5.33;3.73;;;;;;;4.13;46.42;99323.63;7002280;28;20347;-81
2023/02/27 07:15:16;;;;;;;10.27;4.23;;;;;;;5.03;44.66;99322.34;7003049;28;20264;-81
2023/02/27 07:18:38;;;;;;;4.37;4.00;;;;;;;5.56;43.23;99318.44;7001523;28;20324;-81
2023/02/27 07:21:59;;;;;;;4.30;3.57;;;;;;;6.28;40.90;99310.63;6991508;28;20231;-82
2023/02/27 07:25:21;;;;;;;4.43;3.90;;;;;;;4.86;43.11;99324.06;6973902;28;20207;-81
2023/02/27 07:28:44;;;;;;;3.97;3.60;;;;;;;6.06;41.47;99327.31;6973056;28;20230;-81
2023/02/27 07:32:05;;;;;;;5.57;4.13;;;;;;;6.71;40.05;99323.69;6973376;28;20340;-82
2023/02/27 07:35:27;;;;;;;4.73;3.80;;;;;;;6.78;40.34;99318.50;6973507;28;20758;-81
2023/02/27 07:38:48;;;;;;;6.37;3.57;;;;;;;6.40;39.69;99262.94;6972683;28;20263;-81
2023/02/27 07:42:10;;;;;;;3.60;3.30;;;;;;;6.05;41.22;99312.25;6974226;28;20239;-81
2023/02/27 07:45:33;;;;;;;5.63;3.70;;;;;;;6.67;39.44;99333.06;6990176;28;20217;-81
2023/02/27 07:48:55;;;;;;;4.53;3.80;;;;;;;7.02;39.23;99337.25;7000359;28;20228;-81
2023/02/27 07:52:16;;;;;;;4.27;3.90;;;;;;;6.95;40.21;99326.34;7001337;28;20202;-81
2023/02/27 07:55:38;;;;;;;3.30;3.00;;;;;;;7.56;37.40;99272.88;6985128;28;20720;-81
2023/02/27 07:58:59;;;;;;;4.00;3.60;;;;;;;8.20;37.14;99318.19;6978496;28;20266;-81
2023/02/27 08:02:22;;;;;;;4.70;3.40;;;;;;;7.63;37.29;99329.34;7015332;28;20296;-81
2023/02/27 08:05:44;;;;;;;5.43;3.73;;;;;;;6.42;39.90;99317.19;6999391;28;20202;-81
2023/02/27 08:09:06;;;;;;;4.00;3.43;;;;;;;7.03;38.52;99318.31;6981050;28;20280;-81
2023/02/27 08:12:27;;;;;;;3.50;3.30;;;;;;;6.14;39.13;99327.31;6995479;28;20208;-81
2023/02/27 08:15:48;;;;;;;5.17;3.60;;;;;;;7.05;38.22;99324.34;7002770;28;20219;-81
2023/02/27 08:19:13;;;;;;;5.13;3.40;;;;;;;5.52;41.15;99329.59;7002479;28;20749;-81
2023/02/27 08:22:35;;;;;;;3.50;3.20;;;;;;;5.90;40.62;99327.28;7002956;28;20239;-81
2023/02/27 08:25:57;;;;;;;3.50;3.20;;;;;;;6.88;38.71;99330.72;7002235;28;20238;-81
2023/02/27 08:29:18;;;;;;;3.87;3.47;;;;;;;6.33;39.27;99339.59;7002262;28;20252;-80
2023/02/27 08:32:40;;;;;;;3.53;3.23;;;;;;;5.49;39.67;99293.31;6999746;28;20250;-79
2023/02/27 08:36:03;;;;;;;3.87;3.37;;;;;;;5.79;39.44;99332.06;7000451;28;20289;-80
2023/02/27 08:39:25;;;;;;;3.57;3.23;;;;;;;6.83;38.92;99325.03;7001911;28;20219;-80
2023/02/27 08:42:46;;;;;;;5.97;3.13;;;;;;;6.86;37.32;99332.75;6980342;28;20227;-79
2023/02/27 08:46:08;;;;;;;3.90;2.93;;;;;;;6.00;38.41;99329.81;6974451;28;20707;-80
2023/02/27 08:49:29;;;;;;;3.17;2.93;;;;;;;6.64;37.97;99336.09;6974229;28;20316;-80
2023/02/27 08:52:52;;;;;;;3.63;3.10;;;;;;;8.49;34.79;99326.38;6972936;28;20351;-81
2023/02/27 08:56:14;;;;;;;4.23;2.97;;;;;;;7.87;35.49;99308.63;6972869;28;20204;-80
2023/02/27 08:59:35;;;;;;;2.90;2.70;;;;;;;7.64;35.59;99306.88;6990843;28;20312;-80
2023/02/27 09:02:57;;;;;;;2.87;2.67;;;;;;;7.43;35.09;99339.66;7000923;28;20229;-80
2023/02/27 09:06:18;;;;;;;4.20;3.13;;;;;;;6.54;36.61;99345.31;7000276;28;20531;-80
2023/02/27 09:09:41;;;;;;;3.77;3.37;;;;;;;6.36;36.54;99277.69;7001073;28;20319;-80
2023/02/27 09:13:03;;;;;;;3.13;2.83;;;;;;;6.46;37.65;99331.88;7001124;28;20290;-80
2023/02/27 09:16:24;;;;;;;4.07;2.90;;;;;;;9.36;33.01;99338.19;6981060;28;20248;-81
2023/02/27 09:19:46;;;;;;;2.93;2.73;;;;;;;7.33;35.42;99340.84;6977259;28;20218;-80
2023/02/27 09:23:08;;;;;;;2.63;2.43;;;;;;;9.15;33.09;99338.06;6972871;28;20269;-80
2023/02/27 09:26:30;;;;;;;3.40;3.10;;;;;;;9.04;32.36;99333.13;6973692;28;20752;-80
2023/02/27 09:29:54;;;;;;;3.30;3.00;;;;;;;10.16;30.53;99339.09;6983346;28;20316;-80
2023/02/27 09:33:16;;;;;;;3.10;2.80;;;;;;;9.34;31.84;99339.41;6999484;28;20201;-80
2023/02/27 09:36:37;;;;;;;3.03;2.70;;;;;;;9.17;31.78;99345.97;7001928;28;20549;-79
2023/02/27 09:39:59;;;;;;;2.97;2.63;;;;;;;8.60;33.09;99335.88;7003047;28;20256;-80
2023/02/27 09:43:24;;;;;;;2.67;2.50;;;;;;;7.97;32.55;99349.53;7001364;28;20713;-80
2023/02/27 09:46:45;;;;;;;3.10;2.80;;;;;;;7.83;32.98;99352.91;7000356;28;20640;-80
2023/02/27 09:50:11;;;;;;;8.03;3.07;;;;;;;6.01;35.08;99358.28;6993801;28;20571;-81
2023/02/27 09:53:37;;;;;;;3.17;2.93;;;;;;;6.42;35.09;99371.56;6999654;28;20712;-81
2023/02/27 09:57:01;;;;;;;3.97;3.03;;;;;;;7.73;33.71;99363.03;6988231;28;20195;-80
2023/02/27 10:00:35;;;;;;;4.80;2.97;;;;;;;8.21;33.52;99354.78;6976581;28;20234;-80
2023/02/27 10:04:24;;;;;;;3.93;2.93;;;;;;;7.19;33.14;99369.22;6973779;28;21015;-79
2023/02/27 10:07:52;;;;;;;3.13;2.83;;;;;;;7.10;34.14;99359.53;6993963;28;20819;-80
2023/02/27 10:11:16;;;;;;;3.13;2.70;;;;;;;8.19;32.32;99359.44;6997075;28;20228;-80
2023/02/27 10:14:42;;;;;;;3.47;3.10;;;;;;;7.51;32.30;99362.94;6995078;28;20267;-79
2023/02/27 10:18:09;;;;;;;3.43;2.80;;;;;;;8.23;31.79;99360.81;6999039;28;20226;-79
2023/02/27 10:21:33;;;;;;;3.10;2.90;;;;;;;9.28;31.08;99351.72;6999925;28;20281;-82
2023/02/27 10:24:59;;;;;;;10.87;6.10;;;;;;;7.52;30.92;99378.88;6998429;28;20292;-81
2023/02/27 10:28:22;;;;;;;3.80;3.40;;;;;;;7.83;31.75;99366.34;6992213;28;20727;-81
2023/02/27 10:31:46;;;;;;;3.33;3.03;;;;;;;7.12;31.27;99349.44;6991971;28;20198;-80
2023/02/27 10:35:20;;;;;;;2.57;2.33;;;;;;;7.23;32.25;99283.88;6978602;28;20228;-81
2023/02/27 10:38:43;;;;;;;3.30;3.00;;;;;;;7.36;31.95;99372.72;7004922;28;20275;-80
2023/02/27 10:42:06;;;;;;;2.83;2.50;;;;;;;6.91;32.16;99380.47;6978831;28;20208;-79
2023/02/27 10:45:28;;;;;;;2.77;2.57;;;;;;;7.80;31.65;99377.44;6980844;28;20258;-81
2023/02/27 10:48:49;;;;;;;3.20;2.83;;;;;;;8.73;29.35;99371.06;6975456;28;20301;-82
2023/02/27 10:52:14;;;;;;;2.90;2.60;;;;;;;8.34;29.26;99368.47;6976226;28;20206;-82
2023/02/27 10:55:37;;;;;;;3.07;2.77;;;;;;;7.23;30.97;99383.13;6976556;28;20210;-80
2023/02/27 10:59:03;;;;;;;2.90;2.70;;;;;;;9.10;31.21;99371.94;6976159;28;20226;-81
2023/02/27 11:02:29;;;;;;;4.10;3.10;;;;;;;8.36;30.52;99379.06;6984886;28;20261;-81
2023/02/27 11:05:55;;;;;;;4.77;2.83;;;;;;;9.60;28.80;99377.44;7005089;28;20615;-81
2023/02/27 11:09:22;;;;;;;2.50;2.30;;;;;;;7.63;30.81;99397.28;7003379;28;20317;-81
2023/02/27 11:12:58;;;;;;;3.10;2.80;;;;;;;7.80;31.01;99369.41;7001682;28;20868;-80
2023/02/27 11:16:20;;;;;;;2.73;2.53;;;;;;;7.35;31.21;99384.44;7003480;28;20288;-81
2023/02/27 11:19:42;;;;;;;2.83;2.63;;;;;;;7.80;30.60;99374.75;6990648;28;20229;-79
2023/02/27 11:23:04;;;;;;;3.43;2.90;;;;;;;7.93;30.82;99385.78;6975378;28;20291;-81
2023/02/27 11:26:31;;;;;;;2.80;2.60;;;;;;;8.55;30.07;99362.47;6976495;28;20213;-80
2023/02/27 11:29:58;;;;;;;4.13;2.70;;;;;;;8.85;30.44;99346.25;6985509;28;20237;-81
2023/02/27 11:33:21;;;;;;;2.77;2.57;;;;;;;7.53;30.81;99339.44;7004957;28;20815;-79
2023/02/27 11:36:44;;;;;;;2.93;2.73;;;;;;;7.38;31.77;99354.59;7003425;28;20637;-78
2023/02/27 11:40:15;;;;;;;2.80;2.60;;;;;;;8.82;30.49;99356.53;7003963;28;20859;-80
2023/02/27 11:43:42;;;;;;;2.60;2.40;;;;;;;10.13;28.83;99351.09;6981436;28;20213;-81
2023/02/27 11:47:13;;;;;;;2.70;2.50;;;;;;;10.09;28.92;99357.03;6976077;28;20214;-81
2023/02/27 11:50:55;;;;;;;2.47;2.30;;;;;;;10.82;28.93;99344.16;6975887;28;20226;-86
2023/02/27 11:54:21;;;;;;;3.07;2.67;;;;;;;9.73;28.50;99345.31;6976253;28;20344;-80
2023/02/27 11:57:46;;;;;;;2.90;2.50;;;;;;;10.48;28.04;99320.59;6991148;28;20304;-81
2023/02/27 12:01:12;;;;;;;3.73;2.70;;;;;;;10.15;28.75;99335.56;6984853;28;20194;-81
2023/02/27 12:04:43;;;;;;;3.03;2.83;;;;;;;9.20;30.70;99335.66;6983482;28;20679;-81
2023/02/27 12:08:07;;;;;;;7.87;3.00;;;;;;;10.24;28.87;99342.50;6975103;28;20273;-81
2023/02/27 12:11:32;;;;;;;2.73;2.20;;;;;;;9.69;28.82;99336.78;6975991;28;20722;-81
2023/02/27 12:15:00;;;;;;;3.40;2.73;;;;;;;7.26;32.43;99354.09;6985163;28;20186;-80
2023/02/27 12:18:28;;;;;;;4.07;2.80;;;;;;;7.07;32.72;99359.03;7002463;28;20316;-81
2023/02/27 12:21:53;;;;;;;2.83;2.60;;;;;;;7.17;31.99;99351.63;7002014;28;20247;-80
2023/02/27 12:25:19;;;;;;;3.57;3.10;;;;;;;7.40;32.77;99321.22;7003453;28;20357;-80
2023/02/27 12:28:51;;;;;;;5.50;2.47;;;;;;;8.45;31.13;99343.88;7003656;28;20237;-80
2023/02/27 12:32:17;;;;;;;3.00;2.80;;;;;;;8.57;29.62;99339.78;7006277;28;20217;-82
2023/02/27 12:35:42;;;;;;;4.87;2.73;;;;;;;8.57;30.15;99325.47;6995286;28;20666;-81
2023/02/27 12:39:04;;;;;;;2.90;2.70;;;;;;;7.92;31.23;99340.31;7001191;28;20233;-82
2023/02/27 12:43:00;;;;;;;3.97;2.93;;;;;;;8.83;31.16;99326.78;7000853;28;20209;-82
2023/02/27 12:46:29;;;;;;;4.37;3.10;;;;;;;7.15;33.00;99329.50;6997128;28;20225;-80
2023/02/27 12:49:54;;;;;;;2.80;2.57;;;;;;;6.84;32.89;99323.19;6977694;28;20363;-78
2023/02/27 12:53:29;;;;;;;2.80;2.60;;;;;;;8.21;31.74;99330.63;6998478;28;20225;-79
2023/02/27 12:56:59;;;;;;;3.40;3.10;;;;;;;9.59;29.71;99327.34;6994462;28;20246;-80
2023/02/27 13:00:22;;;;;;;3.20;2.90;;;;;;;9.66;31.24;99323.72;6984883;28;20257;-80
2023/02/27 13:03:48;;;;;;;3.20;2.70;;;;;;;9.54;29.21;99292.91;6997356;28;20261;-82
2023/02/27 13:07:17;;;;;;;2.60;2.40;;;;;;;9.64;28.89;99324.94;6999828;28;20205;-80
2023/02/27 13:10:43;;;;;;;2.80;2.50;;;;;;;9.18;29.48;99324.25;7001817;28;20733;-80
2023/02/27 13:14:08;;;;;;;3.07;2.77;;;;;;;7.50;30.29;99340.66;7000004;28;20190;-80
2023/02/27 13:17:35;;;;;;;2.93;2.53;;;;;;;7.69;30.96;99337.56;6999738;28;20232;-80
2023/02/27 13:21:00;;;;;;;2.70;2.50;;;;;;;8.13;30.66;99325.25;7000869;28;20222;-80
2023/02/27 13:24:26;;;;;;;3.23;2.80;;;;;;;8.14;31.33;99313.47;7000769;28;20290;-80
2023/02/27 13:27:52;;;;;;;2.70;2.50;;;;;;;9.21;29.28;99315.00;7000504;28;20236;-80
2023/02/27 13:31:22;;;;;;;4.13;3.30;;;;;;;8.57;29.99;99312.91;7001387;28;20266;-80
2023/02/27 13:34:46;;;;;;;2.90;2.70;;;;;;;9.63;30.22;99304.41;7002067;28;20296;-81
2023/02/27 13:38:29;;;;;;;4.33;2.70;;;;;;;9.69;29.85;99319.81;7001132;28;20770;-80
2023/02/27 13:41:51;;;;;;;2.93;2.73;;;;;;;9.31;29.96;99307.47;6999587;28;20675;-81
2023/02/27 13:45:49;;;;;;;3.90;3.00;;;;;;;9.43;29.21;99322.13;6985652;28;20756;-81
2023/02/27 13:49:25;;;;;;;3.13;2.90;;;;;;;8.47;31.32;99330.25;6981673;28;20315;-81
2023/02/27 13:52:47;;;;;;;3.83;2.70;;;;;;;7.89;31.58;99311.97;6994086;28;20686;-82
2023/02/27 13:56:20;;;;;;;2.97;2.73;;;;;;;7.32;32.41;99334.66;6989795;28;20266;-82
2023/02/27 13:59:43;;;;;;;2.90;2.60;;;;;;;8.63;30.95;99320.22;6986195;28;20694;-81
2023/02/27 14:03:08;;;;;;;3.70;2.80;;;;;;;8.31;31.12;99325.84;6971661;28;20199;-81
2023/02/27 14:06:30;;;;;;;3.13;2.90;;;;;;;8.26;30.70;99322.84;6968612;28;20285;-82
2023/02/27 14:09:58;;;;;;;3.33;2.50;;;;;;;8.15;31.56;99317.03;6968637;28;20719;-84
2023/02/27 14:13:57;;;;;;;3.13;2.83;;;;;;;8.04;31.71;99310.22;6967554;28;20202;-82
2023/02/27 14:17:40;;;;;;;3.40;2.50;;;;;;;8.53;31.00;99332.22;6997045;28;20354;-82
2023/02/27 14:21:04;;;;;;;2.80;2.60;;;;;;;8.34;30.39;99335.38;6997732;28;20198;-81
2023/02/27 14:24:32;;;;;;;4.83;2.87;;;;;;;8.59;30.69;99328.81;6996566;28;20686;-81
2023/02/27 14:27:55;;;;;;;2.83;2.30;;;;;;;8.75;30.09;99329.53;6993586;28;20317;-80
2023/02/27 14:31:21;;;;;;;2.87;2.67;;;;;;;8.28;30.79;99310.09;6995915;28;20237;-81
2023/02/27 14:34:43;;;;;;;3.03;2.63;;;;;;;7.82;32.26;99345.03;6997814;28;20722;-81
2023/02/27 14:38:11;;;;;;;3.10;2.67;;;;;;;8.70;30.96;99340.00;6995483;28;20230;-81
2023/02/27 14:41:38;;;;;;;3.27;2.30;;;;;;;7.64;31.82;99345.28;6996517;28;20283;-81
2023/02/27 14:44:59;;;;;;;2.90;2.67;;;;;;;8.45;30.29;99345.72;6976130;28;20291;-81
2023/02/27 14:48:26;;;;;;;3.20;2.50;;;;;;;7.85;32.19;99342.84;6967860;28;20367;-81
2023/02/27 14:51:49;;;;;;;3.07;2.77;;;;;;;8.31;30.29;99341.94;6968888;28;20773;-81
2023/02/27 14:55:18;;;;;;;2.80;2.30;;;;;;;7.89;31.25;99338.00;6969012;28;20619;-81
2023/02/27 14:58:39;;;;;;;2.70;2.30;;;;;;;7.54;31.99;99354.56;6973045;28;20670;-81
2023/02/27 15:02:03;;;;;;;2.47;2.27;;;;;;;8.48;31.21;99342.69;6994703;28;20213;-82
2023/02/27 15:05:29;;;;;;;2.50;2.30;;;;;;;8.94;30.59;99350.53;6996181;28;20248;-80
2023/02/27 15:08:52;;;;;;;4.10;2.70;;;;;;;8.27;31.44;99346.03;6996190;28;20233;-80
2023/02/27 15:12:19;;;;;;;3.47;2.80;;;;;;;8.52;31.31;99369.03;6995564;28;20413;-81
2023/02/27 15:15:40;;;;;;;3.77;3.03;;;;;;;7.93;31.99;99366.97;6997784;28;20196;-80
2023/02/27 15:19:11;;;;;;;3.00;2.80;;;;;;;8.71;31.12;99376.59;6997480;28;20230;-81
2023/02/27 15:22:37;;;;;;;3.93;2.50;;;;;;;7.51;32.02;99346.84;6976846;28;20207;-81
2023/02/27 15:25:59;;;;;;;4.40;2.67;;;;;;;7.51;31.93;99387.94;6974099;28;20249;-81
2023/02/27 15:29:24;;;;;;;3.53;2.47;;;;;;;7.48;32.65;99380.22;6975298;28;20229;-81
2023/02/27 15:32:45;;;;;;;4.67;2.53;;;;;;;7.37;31.71;99393.97;7002195;28;20350;-81
2023/02/27 15:36:07;;;;;;;3.83;2.47;;;;;;;7.26;32.17;99394.34;7001348;28;20259;-81
2023/02/27 15:39:32;;;;;;;3.67;2.60;;;;;;;8.02;30.98;99390.09;7002216;28;20758;-81
2023/02/27 15:42:54;;;;;;;2.77;2.53;;;;;;;8.30;30.54;99391.31;7002381;28;20206;-81
2023/02/27 15:46:17;;;;;;;2.53;2.33;;;;;;;8.33;30.53;99376.72;6983576;28;20313;-81
2023/02/27 15:49:38;;;;;;;2.50;2.30;;;;;;;7.30;31.48;99379.59;6994620;28;20696;-80
2023/02/27 15:53:05;;;;;;;3.23;2.93;;;;;;;7.30;31.54;99390.31;6988837;28;20241;-83
2023/02/27 15:56:28;;;;;;;4.37;2.10;;;;;;;6.63;31.62;99414.78;6995538;28;20224;-81
2023/02/27 15:59:51;;;;;;;3.50;2.50;;;;;;;6.98;31.70;99405.59;7003275;28;20299;-81
2023/02/27 16:03:17;;;;;;;2.80;2.33;;;;;;;6.89;31.77;99344.97;6987802;28;20213;-82
2023/02/27 16:06:40;;;;;;;4.00;2.67;;;;;;;7.23;31.62;99410.78;6996995;28;20701;-81
2023/02/27 16:10:09;;;;;;;2.73;2.53;;;;;;;7.54;31.68;99411.72;7007991;28;20831;-81
2023/02/27 16:13:33;;;;;;;2.60;2.40;;;;;;;7.83;31.56;99417.34;7003209;28;20292;-82
2023/02/27 16:16:55;;;;;;;2.50;2.30;;;;;;;6.44;32.98;99417.78;7000314;28;20201;-81